ZYCC

Changchun Longjia International

Airport
ICAO code
ZYCC
Summary
ICAO Region
APAC
ICAO Territory
Location

Changchun, Jilin,

Coordinates
43° 59' 46" N , 125° 41' 7" E
Metar
ZYCC 191300Z 05002MPS 3000 FU BKN030 08/M09 Q1016 BECMG TL1430 2000

Changchun Longjia International Airport is an airport in Jilin Province, People's Republic of China (IATA: CGQ), for which it is an aviation hub. The airport is 31.2 km north-east of Changchun and 76 km north-west of Jilin City.

Airport map

Aerial View

SKYbrary Partners:

Safety knowledge contributed by: